SHASTA DAM (USBR) (SHA)

Elevation: 1067' · SACRAMENTO R basin · Operator: US Bureau of Reclamation

Provisional data, subject to change.
Query executed Thursday at 22:58:31   clock

Select a sensor type for a plot of data.
Note: Reservoir Flows are daily averages.

Earlier

Date RES ELE    STORAGE    RES CHG    TOC STO    ABV TOC    OUTFLOW    INFLOW    EVAP    FNF    RIV REL    PPT INC    RAIN    SPILL    DIS PWR   
 FEET   AF   AF   AF   AF   CFS   CFS   CFS   CFS   CFS   INCHES   INCHES   CFS   CFS  
03/26/2014 962.57 2091914 5653 4552100 -2460186 3020 5891 21 6050 0 0.99 24.30 0 3020
03/27/2014 962.88 2097390 5476 4552100 -2454710 2410 5218 47 5292 0 1.24 25.54 0 2410
03/28/2014 963.81 2113902 16512 4552100 -2438198 3061 11396 10 11081 0 0.30 25.84 0 3061
03/29/2014 966.08 2154574 40672 4552100 -2397526 1432 21969 32 25122 0 2.25 28.09 0 1432
03/30/2014 967.28 2176303 21729 4552100 -2375797 1675 12646 16 15199 0 0.03 28.12 0 1675
03/31/2014 968.51 2198728 22425 4552100 -2353372 2098 13415 11 13078 0 0.03 28.15 0 2098
04/01/2014 969.92 2224621 25893 4548400 -2323779 1127 14192 11 14237 0 0.95 29.10 0 1127
04/02/2014 970.93 2243305 18684 4552100 -2308795 1854 11307 33 10751 0 0.73 29.83 0 1854
04/03/2014 971.67 2257071 13766 4552100 -2295029 2037 9032 55 9001 0 0.00 29.83 0 2037
04/04/2014 972.53 2273137 16066 4552100 -2278963 1013 9119 6 10454 0 0.02 29.85 0 1013
04/05/2014 973.31 2287773 14636 4552100 -2264327 478 7874 17 7815 0 0.00 29.85 0 478
04/06/2014 973.97 2300200 12427 4552100 -2251900 1066 7414 83 7789 0 0.00 29.85 0 1066
04/07/2014 974.65 2313073 12873 4552100 -2239027 1235 7809 84 6763 0 0.00 29.85 0 1235
04/08/2014 975.33 2325986 12913 4552100 -2226114 660 7282 112 6689 0 0.00 29.85 0 660
04/09/2014 976.06 2339896 13910 4552100 -2212204 808 7933 112 6945 0 0.00 29.85 0 808
04/10/2014 976.60 2350239 10343 4552100 -2201861 1398 6720 107 6900 0 0.00 29.85 0 1398
04/11/2014 977.14 2360597 10358 4552100 -2191503 1567 6913 124 5910 0 0.00 29.85 0 1567
04/12/2014 977.53 2368109 7512 4552100 -2183991 1379 5251 85 5900 0 0.00 29.85 0 1379
04/13/2014 977.81 2373503 5394 4552100 -2178597 2669 5535 147 5269 0 0.00 29.85 0 2669
04/14/2014 978.20 2381038 7535 4552100 -2171062 2150 6091 142 5619 0 0.00 29.85 0 2150
04/15/2014 978.47 2386268 5230 4552100 -2165832 2636 5421 148 5114 0 0.00 29.85 0 2636
04/16/2014 978.68 2390337 4069 4552100 -2161763 2618 4811 142 5206 0 0.00 29.85 0 2618
04/17/2014 978.94 2395374 5037 4552100 -2156726 2559 5241 143 4322 0 0.00 29.85 0 2559
04/18/2014 979.08 2398095 2721 4552100 -2154005 3454 4957 131 4891 0 0.03 29.88 0 3454
04/19/2014 979.17 2399848 1753 4552100 -2152252 3288 4343 171 4498 0 0.00 29.88 0 3288
04/20/2014 979.22 2400822 974 4552100 -2151278 3657 4279 131 4727 0 0.00 29.88 0 3657
04/21/2014 979.41 2404524 3702 4552100 -2147576 3556 5536 114 4417 0 0.00 29.88 0 3556
04/22/2014 979.39 2404134 -390 4552100 -2147966 3773 3605 29 4221 0 0.03 29.91 0 3773
04/23/2014 979.45 2405303 1169 4552100 -2146797 3147 3908 172 4082 0 0.03 29.94 0 3147
04/24/2014 -- -- -- -- -- -- -- -- -- -- -- -- -- --

Later | Latest

Warning! This data is preliminary and subject to revision.

Download Data Now Download Data Now | Show SHA Map | Plot SHA Data | 1 Month SHA Data | Real-Time SHA Data | SHA Info